createdAt,value
2022-09-26T00:01:39.539Z,12.00
2022-09-26T00:04:26.886Z,12.00
2022-09-26T00:06:57.269Z,12.00
2022-09-26T00:09:27.788Z,12.04
2022-09-26T00:11:55.476Z,12.10
2022-09-26T00:14:27.612Z,12.10
2022-09-26T00:16:56.249Z,12.10
2022-09-26T00:19:24.575Z,12.10
2022-09-26T00:21:52.348Z,12.10
2022-09-26T00:24:20.106Z,12.10
2022-09-26T00:26:47.724Z,12.12
2022-09-26T00:29:15.632Z,12.20
2022-09-26T00:31:46.239Z,12.20
2022-09-26T00:34:17.273Z,12.20
2022-09-26T00:36:45.081Z,12.20
2022-09-26T00:39:15.632Z,12.22
2022-09-26T00:41:44.874Z,12.20
2022-09-26T00:44:37.056Z,12.20
2022-09-26T00:47:14.630Z,12.24
2022-09-26T00:49:45.065Z,12.30
2022-09-26T00:52:26.714Z,12.30
2022-09-26T00:54:58.222Z,12.30
2022-09-26T00:57:34.758Z,12.30
2022-09-26T01:00:10.321Z,12.30
2022-09-26T01:02:39.332Z,12.30
2022-09-26T01:05:08.440Z,12.30
2022-09-26T01:07:36.164Z,12.30
2022-09-26T01:10:06.227Z,12.30
2022-09-26T01:12:38.083Z,12.32
2022-09-26T01:15:08.963Z,12.36
2022-09-26T01:17:44.274Z,12.38
2022-09-26T01:20:29.354Z,12.38
2022-09-26T01:23:40.654Z,12.38
2022-09-26T01:26:45.597Z,12.40
2022-09-26T01:30:04.870Z,12.40
2022-09-26T01:32:57.250Z,12.40
2022-09-26T01:36:07.837Z,12.40
2022-09-26T01:39:00.468Z,12.40
2022-09-26T01:41:55.545Z,12.40
2022-09-26T01:44:50.192Z,12.40
2022-09-26T01:47:27.673Z,12.40
2022-09-26T01:50:24.155Z,12.40
2022-09-26T01:53:10.822Z,12.40
2022-09-26T01:55:51.697Z,12.40
2022-09-26T01:58:37.370Z,12.40
2022-09-26T02:01:13.774Z,12.40
2022-09-26T02:03:49.009Z,12.40
2022-09-26T02:06:31.211Z,12.40
2022-09-26T02:09:13.311Z,12.40
2022-09-26T02:11:47.293Z,12.40
2022-09-26T02:14:27.077Z,12.44
2022-09-26T02:17:01.383Z,12.50
2022-09-26T02:19:39.513Z,12.50
2022-09-26T02:22:07.256Z,12.50
2022-09-26T02:24:34.976Z,12.50
2022-09-26T02:27:03.076Z,12.50
2022-09-26T02:29:32.237Z,12.50
2022-09-26T02:32:15.588Z,12.50
2022-09-26T02:34:48.259Z,12.50
2022-09-26T02:37:18.765Z,12.50
2022-09-26T02:39:49.909Z,12.50
2022-09-26T02:42:36.890Z,12.50
2022-09-26T02:45:54.377Z,12.50
2022-09-26T02:48:54.113Z,12.50
2022-09-26T02:52:08.993Z,12.50
2022-09-26T02:55:26.332Z,12.50
2022-09-26T02:58:45.783Z,12.50
2022-09-26T03:01:31.938Z,12.50
2022-09-26T03:04:18.321Z,12.50
2022-09-26T03:06:53.680Z,12.50
2022-09-26T03:09:25.132Z,12.40
2022-09-26T03:11:55.239Z,12.40
2022-09-26T03:14:22.866Z,12.40
2022-09-26T03:16:52.881Z,12.40
2022-09-26T03:19:52.955Z,12.40
2022-09-26T03:22:20.655Z,12.40
2022-09-26T03:24:48.221Z,12.40
2022-09-26T03:27:18.348Z,12.40
2022-09-26T03:29:45.980Z,12.40
2022-09-26T03:32:13.616Z,12.40
2022-09-26T03:34:41.177Z,12.36
2022-09-26T03:37:08.747Z,12.40
2022-09-26T03:39:36.316Z,12.40
2022-09-26T03:42:03.969Z,12.40
2022-09-26T03:44:31.668Z,12.40
2022-09-26T03:46:59.511Z,12.40
2022-09-26T03:49:27.077Z,12.40
2022-09-26T03:51:54.725Z,12.40
2022-09-26T03:54:22.539Z,12.30
2022-09-26T03:56:50.086Z,12.34
2022-09-26T03:59:17.616Z,12.38
2022-09-26T04:01:45.239Z,12.40
2022-09-26T04:04:15.203Z,12.40
2022-09-26T04:06:45.001Z,12.40
2022-09-26T04:09:16.760Z,12.40
2022-09-26T04:11:45.362Z,12.40
2022-09-26T04:14:12.939Z,12.40
2022-09-26T04:16:40.630Z,12.40
2022-09-26T04:19:08.642Z,12.40
2022-09-26T04:21:36.265Z,12.40
2022-09-26T04:24:04.061Z,12.40
2022-09-26T04:26:32.041Z,12.40
2022-09-26T04:28:59.769Z,12.38
2022-09-26T04:31:28.001Z,12.40
2022-09-26T04:33:56.230Z,12.40
2022-09-26T04:36:24.321Z,12.40
2022-09-26T04:38:52.046Z,12.40
2022-09-26T04:41:21.922Z,12.40
2022-09-26T04:43:49.787Z,12.40
2022-09-26T04:46:23.767Z,12.38
2022-09-26T04:48:57.857Z,12.40
2022-09-26T04:51:27.525Z,12.40
2022-09-26T04:53:55.724Z,12.40
2022-09-26T04:56:27.641Z,12.40
2022-09-26T04:58:58.609Z,12.40
2022-09-26T05:01:27.816Z,12.40
2022-09-26T05:03:57.509Z,12.40
2022-09-26T05:06:25.585Z,12.40
2022-09-26T05:08:53.572Z,12.40
2022-09-26T05:11:21.651Z,12.40
2022-09-26T05:13:53.577Z,12.46
2022-09-26T05:16:21.663Z,12.42
2022-09-26T05:18:52.028Z,12.40
2022-09-26T05:21:20.513Z,12.40
2022-09-26T05:24:07.058Z,12.40
2022-09-26T05:26:44.328Z,12.40
2022-09-26T05:29:12.493Z,12.40
2022-09-26T05:31:41.228Z,12.40
2022-09-26T05:34:18.747Z,12.40
2022-09-26T05:36:47.865Z,12.40
2022-09-26T05:39:35.884Z,12.40
2022-09-26T05:42:08.108Z,12.40
2022-09-26T05:44:36.423Z,12.40
2022-09-26T05:47:04.207Z,12.40
2022-09-26T05:49:34.063Z,12.40
2022-09-26T05:52:02.779Z,12.40
2022-09-26T05:54:30.416Z,12.40
2022-09-26T05:56:57.956Z,12.40
2022-09-26T05:59:25.561Z,12.50
2022-09-26T06:01:53.182Z,12.60
2022-09-26T06:04:21.022Z,12.70
2022-09-26T06:06:48.739Z,12.70
2022-09-26T06:09:16.464Z,12.80
2022-09-26T06:11:44.123Z,12.80
2022-09-26T06:14:11.656Z,12.76
2022-09-26T06:16:39.357Z,12.70
2022-09-26T06:19:07.022Z,12.70
2022-09-26T06:21:34.571Z,12.70
2022-09-26T06:24:02.281Z,12.80
2022-09-26T06:26:29.893Z,12.80
2022-09-26T06:29:02.359Z,12.80
2022-09-26T06:31:30.558Z,12.80
2022-09-26T06:33:58.795Z,12.80
2022-09-26T06:36:26.425Z,12.80
2022-09-26T06:38:55.929Z,12.86
2022-09-26T06:41:26.482Z,12.90
2022-09-26T06:43:54.157Z,12.90
2022-09-26T06:46:22.163Z,12.90
2022-09-26T06:48:49.809Z,12.90
2022-09-26T06:51:17.845Z,13.00
2022-09-26T06:53:46.000Z,13.12
2022-09-26T06:56:14.261Z,13.30
2022-09-26T06:58:41.939Z,13.30
2022-09-26T07:01:11.171Z,13.30
2022-09-26T07:03:44.462Z,13.40
2022-09-26T07:06:14.021Z,13.40
2022-09-26T07:09:01.619Z,13.60
2022-09-26T07:11:46.255Z,13.60
2022-09-26T07:14:17.777Z,13.60
2022-09-26T07:16:45.947Z,13.70
2022-09-26T07:19:13.671Z,13.68
2022-09-26T07:21:41.349Z,13.62
2022-09-26T07:24:13.900Z,13.60
2022-09-26T07:26:42.443Z,13.70
2022-09-26T07:29:10.593Z,13.70
2022-09-26T07:31:38.975Z,13.80
2022-09-26T07:34:08.730Z,13.80
2022-09-26T07:36:36.516Z,13.90
2022-09-26T07:39:04.206Z,13.90
2022-09-26T07:41:32.056Z,14.06
2022-09-26T07:47:06.155Z,14.38
2022-09-26T07:49:52.726Z,14.58
2022-09-26T07:52:22.559Z,14.64
2022-09-26T07:54:50.315Z,14.70
2022-09-26T07:57:19.471Z,14.80
2022-09-26T07:59:49.757Z,14.88
2022-09-26T08:02:31.993Z,14.90
2022-09-26T08:05:03.377Z,14.94
2022-09-26T08:07:33.261Z,15.00
2022-09-26T08:10:03.001Z,15.10
2022-09-26T08:12:39.923Z,15.20
2022-09-26T08:15:08.871Z,15.20
2022-09-26T08:17:37.044Z,15.20
2022-09-26T08:20:05.661Z,15.30
2022-09-26T08:22:33.389Z,15.40
2022-09-26T08:25:00.961Z,15.40
2022-09-26T08:27:33.917Z,15.40
2022-09-26T08:30:02.722Z,15.50
2022-09-26T08:32:32.332Z,15.50
2022-09-26T08:35:00.185Z,15.50
2022-09-26T08:37:29.494Z,15.58
2022-09-26T08:39:57.776Z,15.70
2022-09-26T08:43:04.305Z,15.80
2022-09-26T08:46:07.269Z,15.80
2022-09-26T08:49:17.838Z,15.80
2022-09-26T08:51:51.420Z,15.80
2022-09-26T08:54:34.028Z,15.80
2022-09-26T08:57:24.010Z,15.80
2022-09-26T08:59:54.424Z,15.82
2022-09-26T09:02:34.556Z,15.80
2022-09-26T09:05:26.858Z,15.84
2022-09-26T09:07:58.477Z,15.80
2022-09-26T09:10:53.388Z,15.80
2022-09-26T09:13:55.441Z,15.70
2022-09-26T09:17:01.419Z,15.70
2022-09-26T09:19:50.636Z,15.62
2022-09-26T09:22:26.902Z,15.60
2022-09-26T09:25:09.768Z,15.50
2022-09-26T09:28:07.909Z,15.50
2022-09-26T09:30:54.157Z,15.54
2022-09-26T09:33:33.765Z,15.60
2022-09-26T09:36:42.986Z,15.70
2022-09-26T09:39:23.964Z,15.74
2022-09-26T09:41:59.540Z,15.80
2022-09-26T09:44:47.309Z,15.90
2022-09-26T09:47:18.516Z,15.90
2022-09-26T09:49:49.329Z,15.90
2022-09-26T09:52:59.224Z,15.94
2022-09-26T09:56:02.736Z,16.00
2022-09-26T09:59:07.521Z,16.00
2022-09-26T10:01:43.973Z,16.00
2022-09-26T10:04:44.391Z,16.00
2022-09-26T10:07:12.939Z,16.00
2022-09-26T10:09:46.288Z,16.10
2022-09-26T10:12:21.500Z,16.16
2022-09-26T10:15:00.016Z,16.20
2022-09-26T10:17:29.621Z,16.30
2022-09-26T10:19:57.325Z,16.30
2022-09-26T10:22:37.479Z,16.34
2022-09-26T10:25:16.968Z,16.40
2022-09-26T10:27:53.113Z,16.40
2022-09-26T10:30:31.842Z,16.46
2022-09-26T10:33:03.380Z,16.40
2022-09-26T10:35:39.833Z,16.40
2022-09-26T10:38:28.779Z,16.36
2022-09-26T10:41:01.404Z,16.30
2022-09-26T10:43:36.126Z,16.30
2022-09-26T10:46:15.384Z,16.30
2022-09-26T10:48:57.772Z,16.30
2022-09-26T10:51:36.037Z,16.30
2022-09-26T10:54:09.310Z,16.30
2022-09-26T10:56:47.942Z,16.30
2022-09-26T10:59:19.182Z,16.20
2022-09-26T11:01:52.015Z,16.20
2022-09-26T11:04:49.145Z,16.10
2022-09-26T11:07:30.076Z,16.12
2022-09-26T11:10:04.241Z,16.20
2022-09-26T11:12:39.518Z,16.20
2022-09-26T11:15:14.197Z,16.26
2022-09-26T11:17:51.751Z,16.30
2022-09-26T11:20:47.507Z,16.40
2022-09-26T11:23:37.499Z,16.50
2022-09-26T11:26:37.775Z,16.50
2022-09-26T11:29:34.374Z,16.60
2022-09-26T11:32:05.336Z,16.70
2022-09-26T11:34:35.283Z,16.70
2022-09-26T11:37:30.127Z,16.70
2022-09-26T11:40:39.529Z,16.70
2022-09-26T11:43:34.836Z,16.60
2022-09-26T11:46:35.414Z,16.60
2022-09-26T11:49:52.741Z,16.60
2022-09-26T11:52:38.498Z,16.60
2022-09-26T11:55:45.423Z,16.60
2022-09-26T11:58:39.907Z,16.70
2022-09-26T12:01:16.813Z,16.70
2022-09-26T12:04:03.315Z,16.70
2022-09-26T12:06:39.933Z,16.70
2022-09-26T12:09:53.719Z,16.60
2022-09-26T12:12:41.470Z,16.60
2022-09-26T12:15:27.352Z,16.60
2022-09-26T12:18:24.749Z,16.60
2022-09-26T12:21:19.920Z,16.60
2022-09-26T12:24:24.305Z,16.60
2022-09-26T12:27:28.346Z,16.60
2022-09-26T12:30:02.810Z,16.60
2022-09-26T12:33:13.647Z,16.60
2022-09-26T12:36:19.146Z,16.60
2022-09-26T12:39:24.667Z,16.60
2022-09-26T12:42:42.023Z,16.60
2022-09-26T12:45:42.099Z,16.60
2022-09-26T12:49:02.031Z,16.60
2022-09-26T12:51:47.222Z,16.60
2022-09-26T12:54:34.323Z,16.62
2022-09-26T12:57:57.250Z,16.70
2022-09-26T13:00:25.354Z,16.72
2022-09-26T13:03:16.591Z,16.80
2022-09-26T13:06:08.925Z,16.80
2022-09-26T13:09:17.787Z,16.80
2022-09-26T13:12:20.264Z,16.80
2022-09-26T13:15:01.327Z,16.70
2022-09-26T13:17:46.139Z,16.70
2022-09-26T13:20:43.355Z,16.70
2022-09-26T13:23:31.367Z,16.72
2022-09-26T13:26:14.571Z,16.76
2022-09-26T13:29:23.267Z,16.76
2022-09-26T13:32:05.886Z,16.70
2022-09-26T13:34:47.347Z,16.70
2022-09-26T13:37:56.735Z,16.64
2022-09-26T13:41:00.504Z,16.60
2022-09-26T13:43:53.562Z,16.60
2022-09-26T13:46:46.195Z,16.60
2022-09-26T13:49:51.074Z,16.60
2022-09-26T13:53:18.724Z,16.60
2022-09-26T13:56:18.033Z,16.60
2022-09-26T13:58:45.584Z,16.50
2022-09-26T14:01:28.022Z,16.40
2022-09-26T14:04:20.642Z,16.40
2022-09-26T14:07:26.683Z,16.40
2022-09-26T14:10:13.922Z,16.36
2022-09-26T14:13:08.229Z,16.30
2022-09-26T14:15:48.275Z,16.20
2022-09-26T14:18:42.769Z,16.10
2022-09-26T14:21:12.567Z,15.96
2022-09-26T14:23:45.836Z,15.90
2022-09-26T14:26:27.655Z,15.80
2022-09-26T14:29:25.002Z,15.80
2022-09-26T14:32:05.666Z,15.72
2022-09-26T14:34:48.325Z,15.70
2022-09-26T14:37:32.499Z,15.60
2022-09-26T14:39:59.983Z,15.52
2022-09-26T14:42:46.888Z,15.50
2022-09-26T14:45:17.396Z,15.50
2022-09-26T14:48:14.070Z,15.42
2022-09-26T14:50:53.236Z,15.40
2022-09-26T14:53:38.070Z,15.40
2022-09-26T14:56:17.592Z,15.30
2022-09-26T14:58:51.649Z,15.30
2022-09-26T15:01:36.388Z,15.30
2022-09-26T15:04:17.332Z,15.30
2022-09-26T15:06:51.030Z,15.28
2022-09-26T15:09:30.760Z,15.20
2022-09-26T15:12:08.192Z,15.20
2022-09-26T15:14:52.584Z,15.18
2022-09-26T15:17:32.998Z,15.10
2022-09-26T15:20:07.948Z,15.10
2022-09-26T15:22:35.699Z,15.10
2022-09-26T15:25:21.811Z,15.10
2022-09-26T15:27:56.098Z,15.10
2022-09-26T15:30:33.370Z,15.10
2022-09-26T15:33:06.000Z,15.10
2022-09-26T15:35:34.010Z,15.10
2022-09-26T15:38:11.528Z,15.10
2022-09-26T15:40:39.348Z,15.10
2022-09-26T15:43:09.964Z,15.10
2022-09-26T15:45:46.301Z,15.10
2022-09-26T15:48:21.135Z,15.10
2022-09-26T15:51:00.711Z,15.10
2022-09-26T15:53:39.892Z,15.10
2022-09-26T15:56:16.193Z,15.10
2022-09-26T15:58:54.399Z,15.10
2022-09-26T16:01:27.924Z,15.10
2022-09-26T16:04:30.541Z,15.10
2022-09-26T16:07:15.341Z,15.02
2022-09-26T16:09:47.292Z,15.00
2022-09-26T16:12:15.373Z,14.94
2022-09-26T16:14:50.560Z,14.90
2022-09-26T16:17:21.470Z,14.90
2022-09-26T16:19:56.786Z,14.90
2022-09-26T16:22:36.958Z,14.96
2022-09-26T16:25:34.257Z,15.00
2022-09-26T16:28:21.887Z,14.94
2022-09-26T16:30:58.697Z,14.90
2022-09-26T16:33:31.663Z,14.90
2022-09-26T16:36:09.147Z,14.90
2022-09-26T16:38:37.371Z,14.90
2022-09-26T16:41:27.267Z,14.90
2022-09-26T16:44:16.393Z,14.90
2022-09-26T16:46:51.885Z,14.90
2022-09-26T16:49:48.494Z,14.90
2022-09-26T16:52:36.524Z,14.90
2022-09-26T16:55:06.687Z,14.82
2022-09-26T16:57:48.936Z,14.80
2022-09-26T17:00:40.106Z,14.80
2022-09-26T17:03:27.211Z,14.80
2022-09-26T17:05:57.620Z,14.80
2022-09-26T17:08:27.533Z,14.80
2022-09-26T17:11:02.823Z,14.80
2022-09-26T17:13:35.410Z,14.80
2022-09-26T17:16:03.762Z,14.72
2022-09-26T17:18:33.401Z,14.78
2022-09-26T17:21:02.246Z,14.78
2022-09-26T17:23:40.633Z,14.70
2022-09-26T17:26:19.951Z,14.70
2022-09-26T17:28:49.380Z,14.60
2022-09-26T17:31:21.667Z,14.60
2022-09-26T17:33:53.399Z,14.52
2022-09-26T17:36:28.328Z,14.50
2022-09-26T17:38:59.553Z,14.50
2022-09-26T17:41:29.756Z,14.40
2022-09-26T17:44:00.474Z,14.40
2022-09-26T17:46:28.909Z,14.40
2022-09-26T17:48:56.978Z,14.40
2022-09-26T17:51:25.427Z,14.40
2022-09-26T17:53:52.993Z,14.40
2022-09-26T17:56:20.972Z,14.32
2022-09-26T17:58:49.923Z,14.30
2022-09-26T18:01:30.234Z,14.30
2022-09-26T18:04:03.753Z,14.30
2022-09-26T18:06:33.263Z,14.30
2022-09-26T18:09:07.435Z,14.20
2022-09-26T18:11:36.208Z,14.20
2022-09-26T18:14:06.876Z,14.20
2022-09-26T18:16:34.620Z,14.10
2022-09-26T18:19:07.056Z,14.00
2022-09-26T18:21:44.483Z,14.00
2022-09-26T18:24:19.911Z,14.00
2022-09-26T18:26:50.886Z,13.90
2022-09-26T18:29:33.195Z,13.82
2022-09-26T18:32:03.009Z,13.80
2022-09-26T18:34:30.655Z,13.70
2022-09-26T18:37:00.115Z,13.70
2022-09-26T18:39:30.417Z,13.70
2022-09-26T18:42:09.085Z,13.60
2022-09-26T18:44:37.266Z,13.60
2022-09-26T18:47:14.592Z,13.50
2022-09-26T18:49:46.903Z,13.40
2022-09-26T18:52:17.843Z,13.40
2022-09-26T18:54:46.283Z,13.40
2022-09-26T18:57:33.166Z,13.40
2022-09-26T19:00:01.065Z,13.30
2022-09-26T19:02:38.415Z,13.28
2022-09-26T19:05:11.761Z,13.28
2022-09-26T19:07:40.401Z,13.28
2022-09-26T19:10:16.813Z,13.30
2022-09-26T19:12:44.565Z,13.30
2022-09-26T19:15:16.585Z,13.24
2022-09-26T19:17:44.316Z,13.20
2022-09-26T19:20:11.929Z,13.12
2022-09-26T19:22:39.614Z,13.10
2022-09-26T19:25:10.303Z,13.02
2022-09-26T19:27:52.024Z,13.00
2022-09-26T19:30:22.118Z,13.00
2022-09-26T19:32:56.080Z,12.90
2022-09-26T19:35:31.420Z,12.90
2022-09-26T19:38:00.905Z,12.90
2022-09-26T19:40:29.019Z,12.80
2022-09-26T19:42:57.331Z,12.80
2022-09-26T19:45:26.661Z,12.80
2022-09-26T19:47:56.094Z,12.80
2022-09-26T19:50:25.897Z,12.78
2022-09-26T19:52:56.948Z,12.80
2022-09-26T19:55:28.680Z,12.80
2022-09-26T19:58:01.988Z,12.80
2022-09-26T20:00:29.817Z,12.70
2022-09-26T20:02:57.520Z,12.70
2022-09-26T20:05:26.424Z,12.68
2022-09-26T20:07:54.101Z,12.60
2022-09-26T20:10:25.370Z,12.60
2022-09-26T20:12:53.818Z,12.60
2022-09-26T20:15:21.715Z,12.54
2022-09-26T20:17:50.823Z,12.60
2022-09-26T20:20:27.726Z,12.60
2022-09-26T20:22:56.552Z,12.50
2022-09-26T20:25:31.765Z,12.50
2022-09-26T20:28:00.443Z,12.42
2022-09-26T20:30:46.839Z,12.46
2022-09-26T20:33:14.584Z,12.50
2022-09-26T20:35:47.783Z,12.50
2022-09-26T20:38:40.288Z,12.50
2022-09-26T20:41:22.206Z,12.40
2022-09-26T20:44:01.747Z,12.30
2022-09-26T20:46:38.076Z,12.26
2022-09-26T20:49:16.809Z,12.20
2022-09-26T20:51:45.098Z,12.10
2022-09-26T20:54:32.718Z,12.04
2022-09-26T20:57:03.621Z,11.90
2022-09-26T20:59:34.907Z,11.88
2022-09-26T21:02:22.805Z,11.80
2022-09-26T21:04:52.212Z,11.80
2022-09-26T21:07:20.912Z,11.78
2022-09-26T21:09:49.740Z,11.70
2022-09-26T21:12:18.459Z,11.70
2022-09-26T21:14:46.501Z,11.70
2022-09-26T21:17:45.277Z,11.70
2022-09-26T21:20:26.042Z,11.70
2022-09-26T21:22:55.843Z,11.70
2022-09-26T21:25:27.872Z,11.70
2022-09-26T21:28:27.621Z,11.70
2022-09-26T21:31:05.590Z,11.70
2022-09-26T21:33:33.291Z,11.70
2022-09-26T21:36:01.280Z,11.70
2022-09-26T21:38:30.117Z,11.70
2022-09-26T21:41:00.769Z,11.70
2022-09-26T21:43:36.101Z,11.70
2022-09-26T21:46:03.805Z,11.60
2022-09-26T21:48:32.851Z,11.60
2022-09-26T21:51:03.945Z,11.50
2022-09-26T21:53:56.292Z,11.50
2022-09-26T21:56:32.564Z,11.40
2022-09-26T21:59:00.227Z,11.40
2022-09-26T22:01:27.903Z,11.40
2022-09-26T22:03:55.540Z,11.30
2022-09-26T22:06:23.104Z,11.30
2022-09-26T22:08:51.249Z,11.30
2022-09-26T22:11:18.881Z,11.30
2022-09-26T22:13:46.508Z,11.26
2022-09-26T22:16:14.084Z,11.30
2022-09-26T22:18:41.767Z,11.30
2022-09-26T22:21:11.589Z,11.30
2022-09-26T22:23:40.340Z,11.30
2022-09-26T22:26:07.899Z,11.30
2022-09-26T22:28:35.905Z,11.30
2022-09-26T22:31:05.149Z,11.36
2022-09-26T22:33:34.291Z,11.38
2022-09-26T22:36:02.481Z,11.40
2022-09-26T22:38:32.202Z,11.40
2022-09-26T22:41:03.204Z,11.40
2022-09-26T22:43:33.453Z,11.40
2022-09-26T22:46:11.634Z,11.40
2022-09-26T22:48:43.361Z,11.40
2022-09-26T22:51:11.009Z,11.40
2022-09-26T22:53:40.512Z,11.30
2022-09-26T22:56:12.497Z,11.28
2022-09-26T22:58:50.280Z,11.20
2022-09-26T23:01:24.491Z,11.10
2022-09-26T23:03:55.158Z,11.10
2022-09-26T23:06:24.165Z,11.00
2022-09-26T23:08:52.682Z,11.00
2022-09-26T23:11:21.915Z,11.00
2022-09-26T23:13:52.940Z,11.00
2022-09-26T23:16:23.976Z,10.90
2022-09-26T23:18:52.539Z,10.90
2022-09-26T23:21:27.266Z,10.80
2022-09-26T23:23:58.423Z,10.80
2022-09-26T23:26:30.228Z,10.80
2022-09-26T23:28:59.598Z,10.80
2022-09-26T23:31:28.661Z,10.80
2022-09-26T23:33:57.797Z,10.80
2022-09-26T23:36:25.953Z,10.80
2022-09-26T23:38:54.172Z,10.70
2022-09-26T23:41:21.683Z,10.70
2022-09-26T23:43:49.736Z,10.70
2022-09-26T23:46:17.672Z,10.64
2022-09-26T23:48:45.756Z,10.60
2022-09-26T23:51:13.383Z,10.60
2022-09-26T23:53:40.910Z,10.54
2022-09-26T23:56:12.483Z,10.56
2022-09-26T23:58:41.171Z,10.50
